Domov               UVHVVR             MKGP            O straneh              
ZDRAVSTVENO VARSTVO RASTLIN
  MREŽA AGROMET. POSTAJ
 ► PROGNOSTIČNA OBVESTILA
AGROMETEOROLOŠKI PODATKI -
ARSO
OBVLADOVANJE TVEGANJ ZARADI
NEUGODNIH VREMENSKIH RAZMER
  ► NARAVNE NESREČE
  ► SUŠA/MOČA
  ► NAMAKANJE
  ► ŽLED (gozdarstvo)
KARTOGRAFSKI PRIKAZI
SPLETNE POVEZAVE
PROJEKTI IN PUBLIKACIJE

AGROMETEOROLOŠKA MREŽA: VREMENSKE POSTAJE IN FENOLOŠKA OPAZOVANJA

Pregled podatkov za lokacijo Artiče, meteorološka postaja 513656

Pregled senzorjev na lokaciji

ID Ime Zadnja
vrednost
Datum in čas
zadnje
spremembe
(Lokalni čas)
Tip
senzorja
5140 Omočenost lista (U) 0 U 4.7.2020 17:30 A730WET
5139 Padavine (mm) 0 mm 4.7.2020 16:30 Generic 0.2 mm
5138 Relativna vlaga 2 m (% RH) 47.61 % RH 4.7.2020 17:00 50YA
5137 Temperatura 2 m (°C) 24.86 °C 4.7.2020 17:00 50YA

Pregled podatkov zadnjih 24 ur

Zap.
št.
Datum in čas
(Centralno
evropski čas)
Artiče
Omočenost
lista
Padavine Relativna
vlaga
2
m
Temperatura
2
m
1 4.7.2020 17:30
2 4.7.2020 17:00
3 4.7.2020 16:30
4 4.7.2020 16:00 0 47.6 24.9
5 4.7.2020 15:30 0 0 46.3 25.2
6 4.7.2020 15:00 0 0 47.4 24.6
7 4.7.2020 14:30 0 0 44 25.6
8 4.7.2020 14:00 0 0 44.2 25.3
9 4.7.2020 13:30 0 0 44.6 25.2
10 4.7.2020 13:00 0 0 47.5 24.8
11 4.7.2020 12:30 0 0 48.2 24.9
12 4.7.2020 12:00 0 0 50.8 24.3
13 4.7.2020 11:30 0 0 50.3 24.1
14 4.7.2020 11:00 0 0 57.9 24.1
15 4.7.2020 10:30 0 0 67.9 22.6
16 4.7.2020 10:00 0 0 74.7 21.1
17 4.7.2020 09:30 0 0 81.7 20.1
18 4.7.2020 09:00 0 0 93.6 18.8
19 4.7.2020 08:30 0 0 99.5 17.6
20 4.7.2020 08:00 10 0 100 17.4
21 4.7.2020 07:30 10 0 100 16.8
22 4.7.2020 07:00 10 0 100 15.9
23 4.7.2020 06:30 10 0 100 15.1
24 4.7.2020 06:00 10 0 100 14.6
25 4.7.2020 05:30 10 0 100 14.2
26 4.7.2020 05:00 10 0 100 14.3
27 4.7.2020 04:30 10 0 100 14.4
28 4.7.2020 04:00 10 0 100 14.4
29 4.7.2020 03:30 10 0 100 14.8
30 4.7.2020 03:00 10 0 100 14.7
31 4.7.2020 02:30 10 0 100 14.7
32 4.7.2020 02:00 10 0 100 15.1
33 4.7.2020 01:30 10 0 100 15.3
34 4.7.2020 01:00 10 0 100 15.2
35 4.7.2020 00:30 10 0 100 15.3
36 4.7.2020 00:00 10 0 99.9 15.5
37 3.7.2020 23:30 10 0 99.8 15.8
38 3.7.2020 23:00 10 0 99.5 15.8
39 3.7.2020 22:30 9 0 99.1 15.9
40 3.7.2020 22:00 5 0 98.6 16.3
41 3.7.2020 21:30 3 0 98.5 17
42 3.7.2020 21:00 2 0 98.7 17
43 3.7.2020 20:30 1 0 98.1 17.3
44 3.7.2020 20:00 0 0 96.1 17.5
45 3.7.2020 19:30 0 0 92.4 18.3
46 3.7.2020 19:00 0 0 86.3 19.2
47 3.7.2020 18:30 0 0 85.9 19.6
48 3.7.2020 18:00 0 0 87.2 19.3
© 2011 Ministrstvo za kmetijstvo, gozdarstvo in prehrano. Vse pravice pridržane.